Time,TemperatureF,DewpointF,PressureIn,WindDirection,WindDirectionDegrees,WindSpeedMPH,WindSpeedGustMPH,Humidity,HourlyPrecipIn,Conditions,Clouds,dailyrainin,SoftwareType,DateUTC
2017-05-26 00:09:00,59.0,58.8,29.41,ENE,69,0.0,6.5,99,0.05,,---,0.00,VWS V14.00,2017-05-26 04:09:00,
2017-05-26 00:19:00,58.8,58.5,29.42,West,262,0.9,3.7,99,0.00,,---,0.00,VWS V14.00,2017-05-26 04:19:00,
2017-05-26 00:29:00,58.6,58.3,29.43,West,262,0.0,0.9,99,0.00,,---,0.00,VWS V14.00,2017-05-26 04:29:00,
2017-05-26 00:39:00,58.4,58.2,29.44,West,262,0.0,0.0,99,0.00,,---,0.00,VWS V14.00,2017-05-26 04:39:00,
2017-05-26 00:49:00,58.2,58.0,29.45,West,262,0.0,0.0,99,0.00,,---,0.00,VWS V14.00,2017-05-26 04:49:00,
2017-05-26 00:59:00,58.1,57.9,29.45,West,262,0.0,0.0,99,0.00,,---,0.00,VWS V14.00,2017-05-26 04:59:00,
2017-05-26 01:09:00,57.9,57.7,29.46,SW,235,0.0,1.9,99,0.00,,---,0.00,VWS V14.00,2017-05-26 05:09:00,
2017-05-26 01:19:00,57.8,57.6,29.46,SSW,202,0.0,2.5,99,0.00,,---,0.00,VWS V14.00,2017-05-26 05:19:00,
2017-05-26 01:29:00,57.7,57.5,29.46,SSW,202,0.0,0.7,99,0.00,,---,0.00,VWS V14.00,2017-05-26 05:29:00,
2017-05-26 01:39:00,57.6,57.4,29.46,SSE,165,0.0,2.0,99,0.00,,---,0.00,VWS V14.00,2017-05-26 05:39:00,
2017-05-26 01:49:00,57.6,57.4,29.46,West,269,0.0,1.1,99,0.00,,---,0.00,VWS V14.00,2017-05-26 05:49:00,
2017-05-26 01:59:00,57.5,57.3,29.45,West,269,0.0,0.0,99,0.00,,---,0.00,VWS V14.00,2017-05-26 05:59:00,
2017-05-26 02:09:00,57.7,57.5,29.45,SW,231,0.3,3.7,99,0.00,,---,0.00,VWS V14.00,2017-05-26 06:09:00,
2017-05-26 02:19:00,57.8,57.6,29.46,SW,233,0.0,2.7,99,0.00,,---,0.00,VWS V14.00,2017-05-26 06:19:00,
2017-05-26 02:39:00,57.9,57.8,29.46,SW,236,0.0,0.0,100,0.00,,---,0.00,VWS V14.00,2017-05-26 06:39:00,
2017-05-26 02:49:00,57.9,57.8,29.47,West,276,0.0,1.2,100,0.00,,---,0.00,VWS V14.00,2017-05-26 06:49:00,
2017-05-26 02:59:00,57.9,57.8,29.47,West,276,0.0,0.0,100,0.00,,---,0.00,VWS V14.00,2017-05-26 06:59:00,
2017-05-26 03:09:00,58.0,57.9,29.47,West,276,0.0,0.0,100,0.00,,---,0.00,VWS V14.00,2017-05-26 07:09:00,
2017-05-26 03:19:00,57.9,57.8,29.47,West,276,0.0,0.0,100,0.00,,---,0.00,VWS V14.00,2017-05-26 07:19:00,
2017-05-26 03:29:00,57.8,57.7,29.47,West,276,0.0,0.0,100,0.00,,---,0.00,VWS V14.00,2017-05-26 07:29:00,
2017-05-26 03:39:00,57.7,57.6,29.47,West,276,0.0,0.0,100,0.00,,---,0.00,VWS V14.00,2017-05-26 07:39:00,
2017-05-26 03:49:00,57.7,57.6,29.48,North,357,0.0,3.9,100,0.00,,---,0.00,VWS V14.00,2017-05-26 07:49:00,
2017-05-26 03:59:00,57.7,57.6,29.48,West,264,0.0,5.0,100,0.00,,---,0.00,VWS V14.00,2017-05-26 07:59:00,
2017-05-26 04:09:00,57.7,57.6,29.48,WSW,255,0.0,3.0,100,0.00,,---,0.00,VWS V14.00,2017-05-26 08:09:00,
2017-05-26 04:19:00,57.6,57.5,29.47,SSE,165,0.0,3.5,100,0.00,,---,0.00,VWS V14.00,2017-05-26 08:19:00,
2017-05-26 04:29:00,57.7,57.6,29.48,WNW,301,0.0,3.6,100,0.01,,---,0.01,VWS V14.00,2017-05-26 08:29:00,
2017-05-26 04:39:00,57.7,57.6,29.48,WSW,246,1.1,5.6,100,0.01,,---,0.01,VWS V14.00,2017-05-26 08:39:00,
2017-05-26 04:48:00,57.8,57.8,29.48,West,276,0.0,2.0,100,0.01,,---,0.01,VWS V14.00,2017-05-26 08:48:00,
2017-05-26 04:59:00,57.8,57.8,29.49,SE,145,0.0,4.6,100,0.01,,---,0.01,VWS V14.00,2017-05-26 08:59:00,
2017-05-26 05:09:00,57.8,57.8,29.49,WSW,239,0.0,2.9,100,0.01,,---,0.01,VWS V14.00,2017-05-26 09:09:00,
2017-05-26 05:19:00,57.8,57.8,29.49,WSW,239,0.0,0.0,100,0.01,,---,0.01,VWS V14.00,2017-05-26 09:19:00,
2017-05-26 05:29:00,57.8,57.8,29.50,South,181,0.0,3.6,100,0.01,,---,0.01,VWS V14.00,2017-05-26 09:29:00,
2017-05-26 05:39:00,57.9,57.9,29.50,WNW,297,1.4,2.1,100,0.00,,---,0.01,VWS V14.00,2017-05-26 09:39:00,
2017-05-26 05:48:00,57.9,57.9,29.51,NW,322,1.4,2.8,100,0.00,,---,0.01,VWS V14.00,2017-05-26 09:48:00,
2017-05-26 05:59:00,58.0,58.0,29.51,WSW,252,0.0,6.5,100,0.00,,---,0.01,VWS V14.00,2017-05-26 09:59:00,
2017-05-26 06:09:00,58.2,58.2,29.51,NNW,347,0.0,4.4,100,0.00,,---,0.01,VWS V14.00,2017-05-26 10:09:00,
2017-05-26 06:19:00,58.4,58.4,29.51,West,263,0.0,5.7,100,0.00,,---,0.01,VWS V14.00,2017-05-26 10:19:00,
2017-05-26 06:28:00,58.8,58.8,29.52,West,259,0.0,5.9,100,0.00,,---,0.01,VWS V14.00,2017-05-26 10:28:00,
2017-05-26 06:39:00,59.1,59.1,29.53,WSW,250,0.0,5.5,100,0.00,,---,0.01,VWS V14.00,2017-05-26 10:39:00,
2017-05-26 06:48:00,59.4,59.4,29.53,SSW,201,1.1,3.7,100,0.00,,---,0.01,VWS V14.00,2017-05-26 10:48:00,
2017-05-26 06:59:00,59.5,59.5,29.54,West,277,0.0,4.5,100,0.00,,---,0.01,VWS V14.00,2017-05-26 10:59:00,
2017-05-26 07:08:00,59.9,59.9,29.54,NW,318,0.0,5.3,100,0.00,,---,0.01,VWS V14.00,2017-05-26 11:08:00,
2017-05-26 07:19:00,60.2,60.2,29.55,SW,222,0.0,2.8,100,0.00,,---,0.01,VWS V14.00,2017-05-26 11:19:00,
2017-05-26 07:29:00,60.4,60.4,29.55,WNW,291,0.8,6.3,100,0.00,,---,0.01,VWS V14.00,2017-05-26 11:29:00,
2017-05-26 07:38:00,60.7,60.7,29.56,SW,228,0.0,7.8,100,0.00,,---,0.01,VWS V14.00,2017-05-26 11:38:00,
2017-05-26 07:48:00,61.1,61.1,29.57,West,278,0.0,7.9,100,0.00,,---,0.01,VWS V14.00,2017-05-26 11:48:00,
2017-05-26 07:59:00,61.4,61.4,29.57,WSW,255,2.0,6.3,100,0.00,,---,0.01,VWS V14.00,2017-05-26 11:59:00,
2017-05-26 08:08:00,61.6,61.6,29.57,WSW,238,0.2,5.7,100,0.00,,---,0.01,VWS V14.00,2017-05-26 12:08:00,
2017-05-26 08:18:00,61.8,61.8,29.58,NW,315,0.0,8.5,100,0.00,,---,0.01,VWS V14.00,2017-05-26 12:18:00,
2017-05-26 08:29:00,62.4,62.4,29.58,ESE,105,3.6,6.5,100,0.00,,---,0.01,VWS V14.00,2017-05-26 12:29:00,
2017-05-26 08:39:00,63.1,63.1,29.58,SSW,197,0.0,6.5,100,0.00,,---,0.01,VWS V14.00,2017-05-26 12:39:00,
2017-05-26 08:48:00,63.4,63.4,29.58,SSW,193,2.0,7.1,100,0.00,,---,0.01,VWS V14.00,2017-05-26 12:48:00,
2017-05-26 08:58:00,63.5,63.2,29.59,NNW,332,3.2,8.8,99,0.00,,---,0.01,VWS V14.00,2017-05-26 12:58:00,
2017-05-26 09:08:00,64.2,63.6,29.59,WSW,239,7.0,9.7,98,0.00,,---,0.01,VWS V14.00,2017-05-26 13:08:00,
2017-05-26 09:19:00,65.0,64.1,29.59,SW,229,1.1,14.5,97,0.00,,---,0.01,VWS V14.00,2017-05-26 13:19:00,
2017-05-26 09:29:00,66.0,64.0,29.59,SW,235,3.7,10.4,93,0.00,,---,0.01,VWS V14.00,2017-05-26 13:29:00,
2017-05-26 09:39:00,66.9,63.5,29.59,WSW,257,3.3,15.5,89,0.00,,---,0.01,VWS V14.00,2017-05-26 13:39:00,
2017-05-26 09:48:00,67.6,63.1,29.59,WSW,248,1.9,9.3,86,0.00,,---,0.01,VWS V14.00,2017-05-26 13:48:00,
2017-05-26 09:58:00,68.4,63.7,29.59,East,84,3.0,10.7,85,0.00,,---,0.01,VWS V14.00,2017-05-26 13:58:00,
2017-05-26 10:09:00,68.8,63.4,29.59,ESE,114,2.9,11.2,83,0.00,,---,0.01,VWS V14.00,2017-05-26 14:09:00,
2017-05-26 10:19:00,68.8,62.6,29.59,WSW,246,3.2,10.9,81,0.00,,---,0.01,VWS V14.00,2017-05-26 14:19:00,
2017-05-26 10:29:00,69.4,62.5,29.59,SW,231,2.6,12.2,79,0.00,,---,0.01,VWS V14.00,2017-05-26 14:29:00,
2017-05-26 10:38:00,69.8,62.7,29.58,NNW,339,0.9,8.9,78,0.00,,---,0.01,VWS V14.00,2017-05-26 14:38:00,
2017-05-26 10:48:00,70.7,62.8,29.59,NW,307,9.6,10.6,76,0.00,,---,0.01,VWS V14.00,2017-05-26 14:48:00,
2017-05-26 10:58:00,70.9,62.5,29.59,NW,308,4.0,10.1,75,0.00,,---,0.01,VWS V14.00,2017-05-26 14:58:00,
2017-05-26 11:18:00,71.6,62.7,29.59,WNW,283,9.7,10.6,74,0.00,,---,0.01,VWS V14.00,2017-05-26 15:18:00,